Terminal Aerodrome Forecast
Issued by NWS

Current Version | Previous Version | Text Only | Print | Product List | Glossary On
Versions: 1 2 3 4 5 6 7 8 9 10 11 12 13 14 15 16 17 18 19 20 21 22 23 24 25 26 27 28
000
FTUS45 KGJT 021730
TAFASE
TAF
KASE 021730Z 0218/0318 36003KT P6SM VCTS SCT080CB SCT150
     FM022000 33009KT P6SM VCTS SCT080CB BKN120
     FM030200 19006KT P6SM VCSH SCT080 SCT120 BKN200
     FM030600 20005KT P6SM FEW110 BKN150
     FM031200 22003KT P6SM VCSH SCT050 BKN080=

USA.gov is the U.S. government's official web portal to all federal, state and local government web resources and services.